sensor_id;sensor_type;location;lat;lon;timestamp;temperature;humidity
6106;DHT22;3083;51.508;7.966;2023-06-01T00:00:17;13.20;99.90
6106;DHT22;3083;51.508;7.966;2023-06-01T00:02:47;13.10;99.90
6106;DHT22;3083;51.508;7.966;2023-06-01T00:05:16;13.00;99.90
6106;DHT22;3083;51.508;7.966;2023-06-01T00:07:43;12.90;99.90
6106;DHT22;3083;51.508;7.966;2023-06-01T00:10:10;12.80;99.90
6106;DHT22;3083;51.508;7.966;2023-06-01T00:12:37;12.80;99.90
6106;DHT22;3083;51.508;7.966;2023-06-01T00:15:04;12.70;99.90
6106;DHT22;3083;51.508;7.966;2023-06-01T00:17:31;12.70;99.90
6106;DHT22;3083;51.508;7.966;2023-06-01T00:19:59;12.70;99.90
6106;DHT22;3083;51.508;7.966;2023-06-01T00:22:28;12.70;99.90
6106;DHT22;3083;51.508;7.966;2023-06-01T00:24:59;12.70;99.90
6106;DHT22;3083;51.508;7.966;2023-06-01T00:27:29;12.70;99.90
6106;DHT22;3083;51.508;7.966;2023-06-01T00:29:55;12.80;99.90
6106;DHT22;3083;51.508;7.966;2023-06-01T00:32:22;12.70;99.90
6106;DHT22;3083;51.508;7.966;2023-06-01T00:34:49;12.60;99.90
6106;DHT22;3083;51.508;7.966;2023-06-01T00:37:16;12.60;99.90
6106;DHT22;3083;51.508;7.966;2023-06-01T00:39:44;12.60;99.90
6106;DHT22;3083;51.508;7.966;2023-06-01T00:42:13;12.60;99.90
6106;DHT22;3083;51.508;7.966;2023-06-01T00:44:40;12.60;99.90
6106;DHT22;3083;51.508;7.966;2023-06-01T00:47:07;12.50;99.90
6106;DHT22;3083;51.508;7.966;2023-06-01T00:49:34;12.50;99.90
6106;DHT22;3083;51.508;7.966;2023-06-01T00:52:01;12.50;99.90
6106;DHT22;3083;51.508;7.966;2023-06-01T00:54:28;12.50;99.90
6106;DHT22;3083;51.508;7.966;2023-06-01T00:56:57;12.50;99.90
6106;DHT22;3083;51.508;7.966;2023-06-01T00:59:24;12.50;99.90
6106;DHT22;3083;51.508;7.966;2023-06-01T01:01:51;12.50;99.90
6106;DHT22;3083;51.508;7.966;2023-06-01T01:04:18;12.40;99.90
6106;DHT22;3083;51.508;7.966;2023-06-01T01:07:04;12.30;99.90
6106;DHT22;3083;51.508;7.966;2023-06-01T01:09:39;12.10;99.90
6106;DHT22;3083;51.508;7.966;2023-06-01T01:12:23;12.00;99.90
6106;DHT22;3083;51.508;7.966;2023-06-01T01:14:56;11.80;99.90
6106;DHT22;3083;51.508;7.966;2023-06-01T01:17:29;11.70;99.90
6106;DHT22;3083;51.508;7.966;2023-06-01T01:20:02;11.70;99.90
6106;DHT22;3083;51.508;7.966;2023-06-01T01:23:00;11.70;99.90
6106;DHT22;3083;51.508;7.966;2023-06-01T01:26:12;11.80;99.90
6106;DHT22;3083;51.508;7.966;2023-06-01T01:28:46;11.90;99.90
6106;DHT22;3083;51.508;7.966;2023-06-01T01:31:16;11.80;99.90
6106;DHT22;3083;51.508;7.966;2023-06-01T01:33:46;11.70;99.90
6106;DHT22;3083;51.508;7.966;2023-06-01T01:36:13;11.60;99.90
6106;DHT22;3083;51.508;7.966;2023-06-01T01:38:40;11.50;99.90
6106;DHT22;3083;51.508;7.966;2023-06-01T01:41:07;11.60;99.90
6106;DHT22;3083;51.508;7.966;2023-06-01T01:43:34;11.60;99.90
6106;DHT22;3083;51.508;7.966;2023-06-01T01:46:16;11.50;99.90
6106;DHT22;3083;51.508;7.966;2023-06-01T01:48:52;11.40;99.90
6106;DHT22;3083;51.508;7.966;2023-06-01T01:51:26;11.30;99.90
6106;DHT22;3083;51.508;7.966;2023-06-01T01:53:55;11.20;99.90
6106;DHT22;3083;51.508;7.966;2023-06-01T01:56:23;11.20;99.90
6106;DHT22;3083;51.508;7.966;2023-06-01T01:58:52;11.20;99.90
6106;DHT22;3083;51.508;7.966;2023-06-01T02:01:21;11.20;99.90
6106;DHT22;3083;51.508;7.966;2023-06-01T02:03:58;11.20;99.90
6106;DHT22;3083;51.508;7.966;2023-06-01T02:06:25;11.20;99.90
6106;DHT22;3083;51.508;7.966;2023-06-01T02:08:52;11.20;99.90
6106;DHT22;3083;51.508;7.966;2023-06-01T02:11:19;11.20;99.90
6106;DHT22;3083;51.508;7.966;2023-06-01T02:13:46;11.20;99.90
6106;DHT22;3083;51.508;7.966;2023-06-01T02:16:13;11.10;99.90
6106;DHT22;3083;51.508;7.966;2023-06-01T02:18:43;11.10;99.90
6106;DHT22;3083;51.508;7.966;2023-06-01T02:21:11;11.00;99.90
6106;DHT22;3083;51.508;7.966;2023-06-01T02:23:38;11.00;99.90
6106;DHT22;3083;51.508;7.966;2023-06-01T02:26:06;11.00;99.90
6106;DHT22;3083;51.508;7.966;2023-06-01T02:28:33;10.90;99.90
6106;DHT22;3083;51.508;7.966;2023-06-01T02:31:00;10.90;99.90
6106;DHT22;3083;51.508;7.966;2023-06-01T02:33:27;10.90;99.90
6106;DHT22;3083;51.508;7.966;2023-06-01T02:35:55;10.90;99.90
6106;DHT22;3083;51.508;7.966;2023-06-01T02:38:22;10.90;99.90
6106;DHT22;3083;51.508;7.966;2023-06-01T02:40:49;10.90;99.90
6106;DHT22;3083;51.508;7.966;2023-06-01T02:43:16;10.90;99.90
6106;DHT22;3083;51.508;7.966;2023-06-01T02:45:43;11.00;99.90
6106;DHT22;3083;51.508;7.966;2023-06-01T02:48:10;11.10;99.90
6106;DHT22;3083;51.508;7.966;2023-06-01T02:50:36;11.20;99.90
6106;DHT22;3083;51.508;7.966;2023-06-01T02:53:05;11.30;99.90
6106;DHT22;3083;51.508;7.966;2023-06-01T02:55:32;11.30;99.90
6106;DHT22;3083;51.508;7.966;2023-06-01T02:57:58;11.40;99.90
6106;DHT22;3083;51.508;7.966;2023-06-01T03:00:25;11.40;99.90
6106;DHT22;3083;51.508;7.966;2023-06-01T03:02:53;11.40;99.90
6106;DHT22;3083;51.508;7.966;2023-06-01T03:05:19;11.40;99.90
6106;DHT22;3083;51.508;7.966;2023-06-01T03:07:47;11.40;99.90
6106;DHT22;3083;51.508;7.966;2023-06-01T03:10:15;11.40;99.90
6106;DHT22;3083;51.508;7.966;2023-06-01T03:12:42;11.40;99.90
6106;DHT22;3083;51.508;7.966;2023-06-01T03:15:09;11.40;99.90
6106;DHT22;3083;51.508;7.966;2023-06-01T03:17:36;11.40;99.90
6106;DHT22;3083;51.508;7.966;2023-06-01T03:20:04;11.40;99.90
6106;DHT22;3083;51.508;7.966;2023-06-01T03:22:40;11.40;99.90
6106;DHT22;3083;51.508;7.966;2023-06-01T03:25:07;11.50;99.90
6106;DHT22;3083;51.508;7.966;2023-06-01T03:27:35;11.50;99.90
6106;DHT22;3083;51.508;7.966;2023-06-01T03:30:03;11.50;99.90
6106;DHT22;3083;51.508;7.966;2023-06-01T03:32:35;11.60;99.90
6106;DHT22;3083;51.508;7.966;2023-06-01T03:35:02;11.60;99.90
6106;DHT22;3083;51.508;7.966;2023-06-01T03:37:29;11.50;99.90
6106;DHT22;3083;51.508;7.966;2023-06-01T03:39:56;11.50;99.90
6106;DHT22;3083;51.508;7.966;2023-06-01T03:42:23;11.60;99.90
6106;DHT22;3083;51.508;7.966;2023-06-01T03:44:51;11.60;99.90
6106;DHT22;3083;51.508;7.966;2023-06-01T03:47:18;11.60;99.90
6106;DHT22;3083;51.508;7.966;2023-06-01T03:49:45;11.60;99.90
6106;DHT22;3083;51.508;7.966;2023-06-01T03:52:12;11.70;99.90
6106;DHT22;3083;51.508;7.966;2023-06-01T03:54:41;11.60;99.90
6106;DHT22;3083;51.508;7.966;2023-06-01T03:57:08;11.50;99.90
6106;DHT22;3083;51.508;7.966;2023-06-01T03:59:35;11.40;99.90
6106;DHT22;3083;51.508;7.966;2023-06-01T04:02:04;11.40;99.90
6106;DHT22;3083;51.508;7.966;2023-06-01T04:04:33;11.30;99.90
6106;DHT22;3083;51.508;7.966;2023-06-01T04:07:01;11.30;99.90
6106;DHT22;3083;51.508;7.966;2023-06-01T04:09:28;11.30;99.90
6106;DHT22;3083;51.508;7.966;2023-06-01T04:11:56;11.30;99.90
6106;DHT22;3083;51.508;7.966;2023-06-01T04:14:23;11.30;99.90
6106;DHT22;3083;51.508;7.966;2023-06-01T04:16:50;11.30;99.90
6106;DHT22;3083;51.508;7.966;2023-06-01T04:19:18;11.30;99.90
6106;DHT22;3083;51.508;7.966;2023-06-01T04:21:45;11.20;99.90
6106;DHT22;3083;51.508;7.966;2023-06-01T04:24:12;11.20;99.90
6106;DHT22;3083;51.508;7.966;2023-06-01T04:26:39;11.10;99.90
6106;DHT22;3083;51.508;7.966;2023-06-01T04:29:06;11.10;99.90
6106;DHT22;3083;51.508;7.966;2023-06-01T04:31:34;11.10;99.90
6106;DHT22;3083;51.508;7.966;2023-06-01T04:34:01;11.20;99.90
6106;DHT22;3083;51.508;7.966;2023-06-01T04:36:29;11.20;99.90
6106;DHT22;3083;51.508;7.966;2023-06-01T04:38:56;11.10;99.90
6106;DHT22;3083;51.508;7.966;2023-06-01T04:41:23;11.00;99.90
6106;DHT22;3083;51.508;7.966;2023-06-01T04:43:52;11.00;99.90
6106;DHT22;3083;51.508;7.966;2023-06-01T04:46:19;10.90;99.90
6106;DHT22;3083;51.508;7.966;2023-06-01T04:48:49;10.90;99.90
6106;DHT22;3083;51.508;7.966;2023-06-01T04:51:17;10.90;99.90
6106;DHT22;3083;51.508;7.966;2023-06-01T04:53:47;10.90;99.90
6106;DHT22;3083;51.508;7.966;2023-06-01T04:56:17;11.10;99.90
6106;DHT22;3083;51.508;7.966;2023-06-01T04:58:45;11.10;99.90
6106;DHT22;3083;51.508;7.966;2023-06-01T05:01:13;11.10;99.90
6106;DHT22;3083;51.508;7.966;2023-06-01T05:03:41;11.10;99.90
6106;DHT22;3083;51.508;7.966;2023-06-01T05:06:08;11.10;99.90
6106;DHT22;3083;51.508;7.966;2023-06-01T05:08:36;11.00;99.90
6106;DHT22;3083;51.508;7.966;2023-06-01T05:11:05;11.10;99.90
6106;DHT22;3083;51.508;7.966;2023-06-01T05:13:33;11.00;99.90
6106;DHT22;3083;51.508;7.966;2023-06-01T05:16:00;11.10;99.90
6106;DHT22;3083;51.508;7.966;2023-06-01T05:18:27;11.00;99.90
6106;DHT22;3083;51.508;7.966;2023-06-01T05:20:54;10.90;99.90
6106;DHT22;3083;51.508;7.966;2023-06-01T05:23:21;10.80;99.90
6106;DHT22;3083;51.508;7.966;2023-06-01T05:25:48;10.80;99.90
6106;DHT22;3083;51.508;7.966;2023-06-01T05:28:16;10.90;99.90
6106;DHT22;3083;51.508;7.966;2023-06-01T05:30:43;11.00;99.90
6106;DHT22;3083;51.508;7.966;2023-06-01T05:33:10;11.10;99.90
6106;DHT22;3083;51.508;7.966;2023-06-01T05:35:37;11.20;99.90
6106;DHT22;3083;51.508;7.966;2023-06-01T05:38:04;11.20;99.90
6106;DHT22;3083;51.508;7.966;2023-06-01T05:40:30;11.30;99.90
6106;DHT22;3083;51.508;7.966;2023-06-01T05:42:57;11.30;99.90
6106;DHT22;3083;51.508;7.966;2023-06-01T05:45:25;11.20;99.90
6106;DHT22;3083;51.508;7.966;2023-06-01T05:47:52;11.30;99.90
6106;DHT22;3083;51.508;7.966;2023-06-01T05:50:19;11.20;99.90
6106;DHT22;3083;51.508;7.966;2023-06-01T05:52:46;11.20;99.90
6106;DHT22;3083;51.508;7.966;2023-06-01T05:55:13;11.30;99.90
6106;DHT22;3083;51.508;7.966;2023-06-01T05:57:40;11.30;99.90
6106;DHT22;3083;51.508;7.966;2023-06-01T06:00:10;11.20;99.90
6106;DHT22;3083;51.508;7.966;2023-06-01T06:02:39;11.20;99.90
6106;DHT22;3083;51.508;7.966;2023-06-01T06:05:07;11.20;99.90
6106;DHT22;3083;51.508;7.966;2023-06-01T06:07:35;11.30;99.90
6106;DHT22;3083;51.508;7.966;2023-06-01T06:10:02;11.30;99.90
6106;DHT22;3083;51.508;7.966;2023-06-01T06:12:29;11.30;99.90
6106;DHT22;3083;51.508;7.966;2023-06-01T06:14:57;11.40;99.90
6106;DHT22;3083;51.508;7.966;2023-06-01T06:17:36;11.40;99.90
6106;DHT22;3083;51.508;7.966;2023-06-01T06:20:05;11.40;99.90
6106;DHT22;3083;51.508;7.966;2023-06-01T06:22:33;11.30;99.90
6106;DHT22;3083;51.508;7.966;2023-06-01T06:25:00;11.20;99.90
6106;DHT22;3083;51.508;7.966;2023-06-01T06:27:27;11.10;99.90
6106;DHT22;3083;51.508;7.966;2023-06-01T06:29:54;11.00;99.90
6106;DHT22;3083;51.508;7.966;2023-06-01T06:32:20;11.00;99.90
6106;DHT22;3083;51.508;7.966;2023-06-01T06:34:47;11.10;99.90
6106;DHT22;3083;51.508;7.966;2023-06-01T06:37:16;11.10;99.90
6106;DHT22;3083;51.508;7.966;2023-06-01T06:39:43;11.10;99.90
6106;DHT22;3083;51.508;7.966;2023-06-01T06:42:10;11.20;99.90
6106;DHT22;3083;51.508;7.966;2023-06-01T06:44:37;11.30;99.90
6106;DHT22;3083;51.508;7.966;2023-06-01T06:47:05;11.40;99.90
6106;DHT22;3083;51.508;7.966;2023-06-01T06:49:32;11.40;99.90
6106;DHT22;3083;51.508;7.966;2023-06-01T06:51:58;11.50;99.90
6106;DHT22;3083;51.508;7.966;2023-06-01T06:54:27;11.50;99.90
6106;DHT22;3083;51.508;7.966;2023-06-01T06:56:53;11.50;99.90
6106;DHT22;3083;51.508;7.966;2023-06-01T06:59:20;11.60;99.90
6106;DHT22;3083;51.508;7.966;2023-06-01T07:01:47;11.60;99.90
6106;DHT22;3083;51.508;7.966;2023-06-01T07:04:14;11.60;99.90
6106;DHT22;3083;51.508;7.966;2023-06-01T07:06:41;11.60;99.90
6106;DHT22;3083;51.508;7.966;2023-06-01T07:09:08;11.70;99.90
6106;DHT22;3083;51.508;7.966;2023-06-01T07:11:37;11.70;99.90
6106;DHT22;3083;51.508;7.966;2023-06-01T07:14:03;11.70;99.90
6106;DHT22;3083;51.508;7.966;2023-06-01T07:16:30;11.70;99.90
6106;DHT22;3083;51.508;7.966;2023-06-01T07:18:57;11.60;99.90
6106;DHT22;3083;51.508;7.966;2023-06-01T07:21:24;11.50;99.90
6106;DHT22;3083;51.508;7.966;2023-06-01T07:23:51;11.50;99.90
6106;DHT22;3083;51.508;7.966;2023-06-01T07:26:18;11.70;99.90
6106;DHT22;3083;51.508;7.966;2023-06-01T07:28:47;11.80;99.90
6106;DHT22;3083;51.508;7.966;2023-06-01T07:31:19;11.90;99.90
6106;DHT22;3083;51.508;7.966;2023-06-01T07:33:47;12.10;99.90
6106;DHT22;3083;51.508;7.966;2023-06-01T07:36:13;12.20;99.90
6106;DHT22;3083;51.508;7.966;2023-06-01T07:38:41;12.30;99.90
6106;DHT22;3083;51.508;7.966;2023-06-01T07:41:08;12.30;99.90
6106;DHT22;3083;51.508;7.966;2023-06-01T07:43:36;12.40;99.90
6106;DHT22;3083;51.508;7.966;2023-06-01T07:46:04;12.40;99.90
6106;DHT22;3083;51.508;7.966;2023-06-01T07:48:32;12.50;99.90
6106;DHT22;3083;51.508;7.966;2023-06-01T07:51:01;12.60;99.90
6106;DHT22;3083;51.508;7.966;2023-06-01T07:53:28;12.70;99.90
6106;DHT22;3083;51.508;7.966;2023-06-01T07:55:55;12.80;99.90
6106;DHT22;3083;51.508;7.966;2023-06-01T07:58:22;12.80;99.90
6106;DHT22;3083;51.508;7.966;2023-06-01T08:00:49;12.80;99.90
6106;DHT22;3083;51.508;7.966;2023-06-01T08:03:18;12.90;99.90
6106;DHT22;3083;51.508;7.966;2023-06-01T08:05:47;12.90;99.90
6106;DHT22;3083;51.508;7.966;2023-06-01T08:08:14;13.00;99.90
6106;DHT22;3083;51.508;7.966;2023-06-01T08:10:41;12.90;99.90
6106;DHT22;3083;51.508;7.966;2023-06-01T08:13:08;12.80;99.90
6106;DHT22;3083;51.508;7.966;2023-06-01T08:15:35;12.90;99.90
6106;DHT22;3083;51.508;7.966;2023-06-01T08:18:04;13.10;99.90
6106;DHT22;3083;51.508;7.966;2023-06-01T08:20:33;13.20;99.90
6106;DHT22;3083;51.508;7.966;2023-06-01T08:23:01;13.30;99.90
6106;DHT22;3083;51.508;7.966;2023-06-01T08:25:28;13.40;99.90
6106;DHT22;3083;51.508;7.966;2023-06-01T08:27:55;13.60;99.90
6106;DHT22;3083;51.508;7.966;2023-06-01T08:30:25;13.70;99.90
6106;DHT22;3083;51.508;7.966;2023-06-01T08:32:52;13.80;99.90
6106;DHT22;3083;51.508;7.966;2023-06-01T08:35:19;13.90;99.90
6106;DHT22;3083;51.508;7.966;2023-06-01T08:37:48;14.00;99.90
6106;DHT22;3083;51.508;7.966;2023-06-01T08:40:15;14.00;99.90
6106;DHT22;3083;51.508;7.966;2023-06-01T08:42:49;14.10;99.90
6106;DHT22;3083;51.508;7.966;2023-06-01T08:45:21;14.30;99.90
6106;DHT22;3083;51.508;7.966;2023-06-01T08:47:48;14.40;99.90
6106;DHT22;3083;51.508;7.966;2023-06-01T08:50:16;14.50;99.90
6106;DHT22;3083;51.508;7.966;2023-06-01T08:52:44;14.60;99.90
6106;DHT22;3083;51.508;7.966;2023-06-01T08:55:14;14.80;99.90
6106;DHT22;3083;51.508;7.966;2023-06-01T08:57:41;14.80;99.90
6106;DHT22;3083;51.508;7.966;2023-06-01T09:00:10;14.70;99.90
6106;DHT22;3083;51.508;7.966;2023-06-01T09:02:37;14.90;99.90
6106;DHT22;3083;51.508;7.966;2023-06-01T09:05:04;15.10;99.90
6106;DHT22;3083;51.508;7.966;2023-06-01T09:07:31;15.00;99.90
6106;DHT22;3083;51.508;7.966;2023-06-01T09:09:58;15.20;99.90
6106;DHT22;3083;51.508;7.966;2023-06-01T09:12:28;15.70;99.90
6106;DHT22;3083;51.508;7.966;2023-06-01T09:15:09;16.20;99.90
6106;DHT22;3083;51.508;7.966;2023-06-01T09:17:39;16.90;99.90
6106;DHT22;3083;51.508;7.966;2023-06-01T09:20:11;17.30;99.90
6106;DHT22;3083;51.508;7.966;2023-06-01T09:22:39;17.80;99.90
6106;DHT22;3083;51.508;7.966;2023-06-01T09:25:07;18.10;99.90
6106;DHT22;3083;51.508;7.966;2023-06-01T09:27:44;18.20;99.90
6106;DHT22;3083;51.508;7.966;2023-06-01T09:30:12;18.20;99.90
6106;DHT22;3083;51.508;7.966;2023-06-01T09:32:39;18.10;99.90
6106;DHT22;3083;51.508;7.966;2023-06-01T09:35:07;18.10;99.90
6106;DHT22;3083;51.508;7.966;2023-06-01T09:37:34;18.10;99.90
6106;DHT22;3083;51.508;7.966;2023-06-01T09:40:01;18.50;99.90
6106;DHT22;3083;51.508;7.966;2023-06-01T09:42:33;18.50;99.90
6106;DHT22;3083;51.508;7.966;2023-06-01T09:45:15;18.60;99.90
6106;DHT22;3083;51.508;7.966;2023-06-01T09:47:43;18.80;99.90
6106;DHT22;3083;51.508;7.966;2023-06-01T09:50:10;19.10;99.90
6106;DHT22;3083;51.508;7.966;2023-06-01T09:52:37;19.40;99.90
6106;DHT22;3083;51.508;7.966;2023-06-01T09:55:05;19.50;99.90
6106;DHT22;3083;51.508;7.966;2023-06-01T09:57:33;19.50;99.90
6106;DHT22;3083;51.508;7.966;2023-06-01T10:00:01;19.40;99.90
6106;DHT22;3083;51.508;7.966;2023-06-01T10:02:30;19.40;99.90
6106;DHT22;3083;51.508;7.966;2023-06-01T10:04:59;19.70;99.90
6106;DHT22;3083;51.508;7.966;2023-06-01T10:07:28;20.10;99.90
6106;DHT22;3083;51.508;7.966;2023-06-01T10:09:56;20.30;99.90
6106;DHT22;3083;51.508;7.966;2023-06-01T10:12:24;20.50;99.90
6106;DHT22;3083;51.508;7.966;2023-06-01T10:14:52;20.50;99.90
6106;DHT22;3083;51.508;7.966;2023-06-01T10:17:20;20.40;99.90
6106;DHT22;3083;51.508;7.966;2023-06-01T10:19:48;20.10;99.90
6106;DHT22;3083;51.508;7.966;2023-06-01T10:22:16;20.20;99.90
6106;DHT22;3083;51.508;7.966;2023-06-01T10:24:44;20.20;99.90
6106;DHT22;3083;51.508;7.966;2023-06-01T10:27:16;20.20;99.90
6106;DHT22;3083;51.508;7.966;2023-06-01T10:29:45;20.30;99.90
6106;DHT22;3083;51.508;7.966;2023-06-01T10:32:40;20.20;99.90
6106;DHT22;3083;51.508;7.966;2023-06-01T10:35:09;20.30;99.90
6106;DHT22;3083;51.508;7.966;2023-06-01T10:37:37;20.60;99.90
6106;DHT22;3083;51.508;7.966;2023-06-01T10:40:19;20.70;99.90
6106;DHT22;3083;51.508;7.966;2023-06-01T10:42:47;20.50;99.90
6106;DHT22;3083;51.508;7.966;2023-06-01T10:45:37;20.30;99.90
6106;DHT22;3083;51.508;7.966;2023-06-01T10:48:05;20.40;99.90
6106;DHT22;3083;51.508;7.966;2023-06-01T10:50:34;20.60;99.90
6106;DHT22;3083;51.508;7.966;2023-06-01T10:53:25;20.90;99.90
6106;DHT22;3083;51.508;7.966;2023-06-01T10:56:17;21.10;99.90
6106;DHT22;3083;51.508;7.966;2023-06-01T10:58:45;21.60;99.90
6106;DHT22;3083;51.508;7.966;2023-06-01T11:01:18;21.90;99.90
6106;DHT22;3083;51.508;7.966;2023-06-01T11:03:48;22.30;99.90
6106;DHT22;3083;51.508;7.966;2023-06-01T11:06:29;22.40;99.90
6106;DHT22;3083;51.508;7.966;2023-06-01T11:08:58;22.30;99.90
6106;DHT22;3083;51.508;7.966;2023-06-01T11:12:00;21.90;99.90
6106;DHT22;3083;51.508;7.966;2023-06-01T11:14:28;21.60;99.90
6106;DHT22;3083;51.508;7.966;2023-06-01T11:17:25;21.30;99.90
6106;DHT22;3083;51.508;7.966;2023-06-01T11:19:57;21.30;99.90
6106;DHT22;3083;51.508;7.966;2023-06-01T11:22:26;21.20;99.90
6106;DHT22;3083;51.508;7.966;2023-06-01T11:24:55;20.80;99.90
6106;DHT22;3083;51.508;7.966;2023-06-01T11:27:24;20.60;99.90
6106;DHT22;3083;51.508;7.966;2023-06-01T11:29:51;20.50;99.90
6106;DHT22;3083;51.508;7.966;2023-06-01T11:32:22;20.50;99.90
6106;DHT22;3083;51.508;7.966;2023-06-01T11:34:49;20.50;99.90
6106;DHT22;3083;51.508;7.966;2023-06-01T11:37:19;20.40;99.90
6106;DHT22;3083;51.508;7.966;2023-06-01T11:39:47;20.40;99.90
6106;DHT22;3083;51.508;7.966;2023-06-01T11:42:16;20.50;99.90
6106;DHT22;3083;51.508;7.966;2023-06-01T11:44:44;20.60;99.90
6106;DHT22;3083;51.508;7.966;2023-06-01T11:47:13;20.60;99.90
6106;DHT22;3083;51.508;7.966;2023-06-01T11:49:40;20.50;99.90
6106;DHT22;3083;51.508;7.966;2023-06-01T11:52:09;20.00;99.90
6106;DHT22;3083;51.508;7.966;2023-06-01T11:54:36;19.70;99.90
6106;DHT22;3083;51.508;7.966;2023-06-01T11:57:06;19.40;99.90
6106;DHT22;3083;51.508;7.966;2023-06-01T11:59:37;19.10;99.90
6106;DHT22;3083;51.508;7.966;2023-06-01T12:02:16;19.10;99.90
6106;DHT22;3083;51.508;7.966;2023-06-01T12:04:54;19.30;99.90
6106;DHT22;3083;51.508;7.966;2023-06-01T12:07:21;19.40;99.90
6106;DHT22;3083;51.508;7.966;2023-06-01T12:09:48;19.50;99.90
6106;DHT22;3083;51.508;7.966;2023-06-01T12:12:17;19.90;99.90
6106;DHT22;3083;51.508;7.966;2023-06-01T12:14:44;20.00;99.90
6106;DHT22;3083;51.508;7.966;2023-06-01T12:17:11;20.20;99.90
6106;DHT22;3083;51.508;7.966;2023-06-01T12:19:44;20.30;99.90
6106;DHT22;3083;51.508;7.966;2023-06-01T12:22:12;20.20;99.90
6106;DHT22;3083;51.508;7.966;2023-06-01T12:24:40;20.00;99.90
6106;DHT22;3083;51.508;7.966;2023-06-01T12:27:13;19.80;99.90
6106;DHT22;3083;51.508;7.966;2023-06-01T12:29:43;19.50;99.90
6106;DHT22;3083;51.508;7.966;2023-06-01T12:32:11;19.40;99.90
6106;DHT22;3083;51.508;7.966;2023-06-01T12:34:40;19.40;99.90
6106;DHT22;3083;51.508;7.966;2023-06-01T12:37:14;19.30;99.90
6106;DHT22;3083;51.508;7.966;2023-06-01T12:39:41;19.30;99.90
6106;DHT22;3083;51.508;7.966;2023-06-01T12:42:09;19.20;99.90
6106;DHT22;3083;51.508;7.966;2023-06-01T12:44:37;19.20;99.90
6106;DHT22;3083;51.508;7.966;2023-06-01T12:47:07;19.10;99.90
6106;DHT22;3083;51.508;7.966;2023-06-01T12:49:34;19.10;99.90
6106;DHT22;3083;51.508;7.966;2023-06-01T12:52:03;19.20;99.90
6106;DHT22;3083;51.508;7.966;2023-06-01T12:54:30;19.20;99.90
6106;DHT22;3083;51.508;7.966;2023-06-01T12:56:57;19.20;99.90
6106;DHT22;3083;51.508;7.966;2023-06-01T12:59:24;19.30;99.90
6106;DHT22;3083;51.508;7.966;2023-06-01T13:01:51;19.40;99.90
6106;DHT22;3083;51.508;7.966;2023-06-01T13:04:19;19.40;99.90
6106;DHT22;3083;51.508;7.966;2023-06-01T13:06:47;19.30;99.90
6106;DHT22;3083;51.508;7.966;2023-06-01T13:09:14;19.20;99.90
6106;DHT22;3083;51.508;7.966;2023-06-01T13:11:41;19.30;99.90
6106;DHT22;3083;51.508;7.966;2023-06-01T13:14:08;19.40;99.90
6106;DHT22;3083;51.508;7.966;2023-06-01T13:16:35;19.60;99.90
6106;DHT22;3083;51.508;7.966;2023-06-01T13:19:01;19.60;99.90
6106;DHT22;3083;51.508;7.966;2023-06-01T13:21:31;19.70;99.90
6106;DHT22;3083;51.508;7.966;2023-06-01T13:23:59;19.90;99.90
6106;DHT22;3083;51.508;7.966;2023-06-01T13:26:26;20.00;99.90
6106;DHT22;3083;51.508;7.966;2023-06-01T13:28:53;20.10;99.90
6106;DHT22;3083;51.508;7.966;2023-06-01T13:31:20;20.00;99.90
6106;DHT22;3083;51.508;7.966;2023-06-01T13:33:48;20.00;99.90
6106;DHT22;3083;51.508;7.966;2023-06-01T13:36:15;19.90;99.90
6106;DHT22;3083;51.508;7.966;2023-06-01T13:38:43;20.00;99.90
6106;DHT22;3083;51.508;7.966;2023-06-01T13:41:10;20.20;99.90
6106;DHT22;3083;51.508;7.966;2023-06-01T13:43:37;20.20;99.90
6106;DHT22;3083;51.508;7.966;2023-06-01T13:46:05;20.10;99.90
6106;DHT22;3083;51.508;7.966;2023-06-01T13:48:33;19.90;99.90
6106;DHT22;3083;51.508;7.966;2023-06-01T13:51:00;19.80;99.90
6106;DHT22;3083;51.508;7.966;2023-06-01T13:53:27;19.70;99.90
6106;DHT22;3083;51.508;7.966;2023-06-01T13:55:56;19.70;99.90
6106;DHT22;3083;51.508;7.966;2023-06-01T13:58:23;19.90;99.90
6106;DHT22;3083;51.508;7.966;2023-06-01T14:00:50;19.80;99.90
6106;DHT22;3083;51.508;7.966;2023-06-01T14:03:17;19.90;99.90
6106;DHT22;3083;51.508;7.966;2023-06-01T14:05:44;19.80;99.90
6106;DHT22;3083;51.508;7.966;2023-06-01T14:08:11;19.70;99.90
6106;DHT22;3083;51.508;7.966;2023-06-01T14:10:38;19.50;99.90
6106;DHT22;3083;51.508;7.966;2023-06-01T14:13:07;19.40;99.90
6106;DHT22;3083;51.508;7.966;2023-06-01T14:15:34;19.30;99.90
6106;DHT22;3083;51.508;7.966;2023-06-01T14:18:01;19.30;99.90
6106;DHT22;3083;51.508;7.966;2023-06-01T14:20:29;19.30;99.90
6106;DHT22;3083;51.508;7.966;2023-06-01T14:22:56;19.30;99.90
6106;DHT22;3083;51.508;7.966;2023-06-01T14:25:23;19.40;99.90
6106;DHT22;3083;51.508;7.966;2023-06-01T14:27:50;19.40;99.90
6106;DHT22;3083;51.508;7.966;2023-06-01T14:30:19;19.50;99.90
6106;DHT22;3083;51.508;7.966;2023-06-01T14:32:45;19.60;99.90
6106;DHT22;3083;51.508;7.966;2023-06-01T14:35:12;19.60;99.90
6106;DHT22;3083;51.508;7.966;2023-06-01T14:37:41;19.60;99.90
6106;DHT22;3083;51.508;7.966;2023-06-01T14:40:09;19.40;99.90
6106;DHT22;3083;51.508;7.966;2023-06-01T14:42:37;19.20;99.90
6106;DHT22;3083;51.508;7.966;2023-06-01T14:45:04;19.10;99.90
6106;DHT22;3083;51.508;7.966;2023-06-01T14:47:33;19.10;99.90
6106;DHT22;3083;51.508;7.966;2023-06-01T14:50:00;19.00;99.90
6106;DHT22;3083;51.508;7.966;2023-06-01T14:52:27;18.80;99.90
6106;DHT22;3083;51.508;7.966;2023-06-01T14:54:53;18.60;99.90
6106;DHT22;3083;51.508;7.966;2023-06-01T14:57:20;18.40;99.90
6106;DHT22;3083;51.508;7.966;2023-06-01T14:59:47;18.40;99.90
6106;DHT22;3083;51.508;7.966;2023-06-01T15:02:14;18.40;99.90
6106;DHT22;3083;51.508;7.966;2023-06-01T15:04:43;18.50;99.90
6106;DHT22;3083;51.508;7.966;2023-06-01T15:07:10;18.60;99.90
6106;DHT22;3083;51.508;7.966;2023-06-01T15:09:37;18.70;99.90
6106;DHT22;3083;51.508;7.966;2023-06-01T15:12:04;18.80;99.90
6106;DHT22;3083;51.508;7.966;2023-06-01T15:14:31;18.80;99.90
6106;DHT22;3083;51.508;7.966;2023-06-01T15:16:58;18.80;99.90
6106;DHT22;3083;51.508;7.966;2023-06-01T15:19:25;18.90;99.90
6106;DHT22;3083;51.508;7.966;2023-06-01T15:21:54;18.80;99.90
6106;DHT22;3083;51.508;7.966;2023-06-01T15:24:20;18.80;99.90
6106;DHT22;3083;51.508;7.966;2023-06-01T15:26:47;18.80;99.90
6106;DHT22;3083;51.508;7.966;2023-06-01T15:29:14;18.80;99.90
6106;DHT22;3083;51.508;7.966;2023-06-01T15:31:41;18.70;99.90
6106;DHT22;3083;51.508;7.966;2023-06-01T15:34:08;18.60;99.90
6106;DHT22;3083;51.508;7.966;2023-06-01T15:36:35;18.40;99.90
6106;DHT22;3083;51.508;7.966;2023-06-01T15:39:04;18.30;99.90
6106;DHT22;3083;51.508;7.966;2023-06-01T15:41:31;18.30;99.90
6106;DHT22;3083;51.508;7.966;2023-06-01T15:43:59;18.40;99.90
6106;DHT22;3083;51.508;7.966;2023-06-01T15:46:26;18.40;99.90
6106;DHT22;3083;51.508;7.966;2023-06-01T15:48:53;18.40;99.90
6106;DHT22;3083;51.508;7.966;2023-06-01T15:51:20;18.50;99.90
6106;DHT22;3083;51.508;7.966;2023-06-01T15:53:47;18.60;99.90
6106;DHT22;3083;51.508;7.966;2023-06-01T15:56:15;18.70;99.90
6106;DHT22;3083;51.508;7.966;2023-06-01T15:58:42;18.80;99.90
6106;DHT22;3083;51.508;7.966;2023-06-01T16:01:09;18.70;99.90
6106;DHT22;3083;51.508;7.966;2023-06-01T16:03:36;18.70;99.90
6106;DHT22;3083;51.508;7.966;2023-06-01T16:06:02;18.70;99.90
6106;DHT22;3083;51.508;7.966;2023-06-01T16:08:30;18.70;99.90
6106;DHT22;3083;51.508;7.966;2023-06-01T16:10:57;18.70;99.90